Terminal Aerodrome Forecast
Issued by NWS Pittsburgh, PA

Current Version | Previous Version | Graphics & Text | Print | Product List | Glossary On
Versions: 1 2 3 4 5 6 7 8 9 10 11 12 13 14 15 16 17 18 19 20 21 22 23 24 25 26 27
637
FTUS41 KPBZ 090527
TAFPIT
TAF
KPIT 090527Z 0906/1012 26011G19KT P6SM -SHSN OVC025
      TEMPO 0906/0908 OVC035
     FM091500 26011G19KT 6SM -SHSN OVC025
     FM092300 26009KT P6SM VCSH OVC025=

USA.gov is the U.S. government's official web portal to all federal, state and local government web resources and services.